Time;durP1;ratioP1;P1;durP2;ratioP2;P2;SDS_P1;SDS_P2;PMS_P1;PMS_P2;Temp;Humidity;BMP_temperature;BMP_pressure;BME280_temperature;BME280_humidity;BME280_pressure;Samples;Min_cycle;Max_cycle;Signal;HPM_P1;HPM_P2
2023/09/13 00:00:38;;;;;;;9.73;2.10;;;;;;;;;;4982980;28;20623;-77
2023/09/13 00:03:04;;;;;;;9.35;2.63;;;;;;;;;;4983361;28;20125;-76
2023/09/13 00:05:30;;;;;;;12.38;3.45;;;;;;;;;;4981134;28;20034;-76
2023/09/13 00:07:56;;;;;;;10.10;1.88;;;;;;;;;;4989102;28;20094;-76
2023/09/13 00:10:22;;;;;;;9.60;3.15;;;;;;;;;;4980734;28;20037;-76
2023/09/13 00:12:48;;;;;;;12.13;2.55;;;;;;;;;;4980067;28;20542;-76
2023/09/13 00:15:14;;;;;;;8.23;2.35;;;;;;;;;;4987602;28;20503;-77
2023/09/13 00:17:40;;;;;;;5.85;2.20;;;;;;;;;;4981204;28;20022;-76
2023/09/13 00:20:07;;;;;;;11.32;2.53;;;;;;;;;;4982605;28;20043;-77
2023/09/13 00:22:33;;;;;;;13.30;2.90;;;;;;;;;;4979028;28;20030;-77
2023/09/13 00:24:59;;;;;;;10.60;1.85;;;;;;;;;;4985936;28;20042;-77
2023/09/13 00:27:25;;;;;;;16.65;2.28;;;;;;;;;;4984442;28;20066;-76
2023/09/13 00:29:51;;;;;;;12.02;2.30;;;;;;;;;;4982798;28;20034;-76
2023/09/13 00:32:17;;;;;;;16.75;2.78;;;;;;;;;;4988753;28;20467;-76
2023/09/13 00:34:43;;;;;;;15.02;2.67;;;;;;;;;;4988481;28;20058;-76
2023/09/13 00:37:09;;;;;;;10.32;2.13;;;;;;;;;;4991084;28;20038;-76
2023/09/13 00:39:35;;;;;;;9.55;1.70;;;;;;;;;;4986318;28;21047;-76
2023/09/13 00:42:01;;;;;;;8.55;1.77;;;;;;;;;;4986456;28;20058;-76
2023/09/13 00:44:27;;;;;;;14.07;2.22;;;;;;;;;;4986719;28;20070;-76
2023/09/13 00:46:53;;;;;;;10.38;2.65;;;;;;;;;;4987947;28;20073;-76
2023/09/13 00:49:19;;;;;;;11.50;2.10;;;;;;;;;;4986162;28;20041;-77
2023/09/13 00:51:46;;;;;;;10.40;2.17;;;;;;;;;;4986049;28;20476;-76
2023/09/13 00:54:12;;;;;;;11.07;2.55;;;;;;;;;;4988549;28;20039;-76
2023/09/13 00:56:39;;;;;;;12.75;2.58;;;;;;;;;;4984788;28;20038;-76
2023/09/13 00:59:08;;;;;;;11.27;2.45;;;;;;;;;;4987781;28;20074;-77
2023/09/13 01:01:34;;;;;;;11.75;2.30;;;;;;;;;;4983540;28;20113;-77
2023/09/13 01:04:00;;;;;;;9.02;2.10;;;;;;;;;;4983935;28;20050;-76
2023/09/13 01:06:27;;;;;;;9.68;2.03;;;;;;;;;;4977313;28;20049;-76
2023/09/13 01:08:53;;;;;;;8.35;1.77;;;;;;;;;;4984237;28;20053;-76
2023/09/13 01:11:19;;;;;;;6.75;1.90;;;;;;;;;;5000537;28;20069;-77
2023/09/13 01:13:45;;;;;;;9.05;2.30;;;;;;;;;;4993357;28;20396;-77
2023/09/13 01:16:17;;;;;;;8.63;2.17;;;;;;;;;;4987987;28;20034;-76
2023/09/13 01:18:55;;;;;;;7.13;1.85;;;;;;;;;;4981586;28;20043;-76
2023/09/13 01:21:22;;;;;;;11.20;2.20;;;;;;;;;;4983349;28;20038;-78
2023/09/13 01:24:00;;;;;;;9.57;2.75;;;;;;;;;;4984462;28;20039;-76
2023/09/13 01:26:26;;;;;;;13.02;2.92;;;;;;;;;;4980497;28;20054;-74
2023/09/13 01:28:54;;;;;;;14.43;2.35;;;;;;;;;;4981234;28;20034;-74
2023/09/13 01:31:21;;;;;;;7.38;2.20;;;;;;;;;;4985018;28;20460;-75
2023/09/13 01:33:47;;;;;;;7.63;1.77;;;;;;;;;;4984653;28;20144;-74
2023/09/13 01:36:13;;;;;;;8.27;2.08;;;;;;;;;;4984341;28;20133;-74
2023/09/13 01:38:40;;;;;;;15.02;5.05;;;;;;;;;;4980872;28;20052;-83
2023/09/13 01:41:18;;;;;;;24.10;9.52;;;;;;;;;;4984909;28;20076;-81
2023/09/13 01:43:45;;;;;;;7.97;2.95;;;;;;;;;;4978373;28;20038;-76
2023/09/13 01:46:12;;;;;;;8.68;2.08;;;;;;;;;;4981835;28;20034;-75
2023/09/13 01:48:39;;;;;;;9.32;1.80;;;;;;;;;;4995962;28;20037;-75
2023/09/13 01:51:05;;;;;;;5.65;1.67;;;;;;;;;;4994907;28;20110;-75
2023/09/13 01:53:31;;;;;;;8.35;2.75;;;;;;;;;;4981355;28;20030;-75
2023/09/13 01:55:57;;;;;;;8.60;2.20;;;;;;;;;;4984840;28;20042;-75
2023/09/13 01:58:23;;;;;;;18.63;2.30;;;;;;;;;;4981216;28;20042;-75
2023/09/13 02:00:50;;;;;;;8.18;1.60;;;;;;;;;;4978557;28;20113;-75
2023/09/13 02:03:16;;;;;;;8.02;2.05;;;;;;;;;;4984495;28;20046;-74
2023/09/13 02:05:42;;;;;;;5.80;1.83;;;;;;;;;;4987079;28;20030;-75
2023/09/13 02:08:08;;;;;;;5.88;1.70;;;;;;;;;;4982046;28;20038;-74
2023/09/13 02:10:35;;;;;;;8.77;2.30;;;;;;;;;;4985225;28;20031;-75
2023/09/13 02:13:01;;;;;;;7.50;1.80;;;;;;;;;;4980887;28;20049;-74
2023/09/13 02:15:30;;;;;;;16.60;5.53;;;;;;;;;;4979229;28;20041;-76
2023/09/13 02:17:56;;;;;;;12.35;2.83;;;;;;;;;;4984340;28;20057;-76
2023/09/13 02:20:22;;;;;;;16.75;6.63;;;;;;;;;;5000237;28;20535;-75
2023/09/13 02:22:48;;;;;;;11.45;2.33;;;;;;;;;;4980835;28;20421;-75
2023/09/13 02:25:15;;;;;;;6.88;1.77;;;;;;;;;;4971753;28;20046;-74
2023/09/13 02:27:41;;;;;;;9.38;1.70;;;;;;;;;;4985866;28;20057;-74
2023/09/13 02:30:08;;;;;;;7.90;2.22;;;;;;;;;;4980406;28;20031;-74
2023/09/13 02:32:34;;;;;;;13.93;2.53;;;;;;;;;;4983661;28;20027;-73
2023/09/13 02:35:00;;;;;;;9.23;1.83;;;;;;;;;;4982123;28;20104;-74
2023/09/13 02:37:27;;;;;;;4.93;1.60;;;;;;;;;;4980012;28;20026;-73
2023/09/13 02:39:54;;;;;;;5.50;1.48;;;;;;;;;;4982903;28;20045;-74
2023/09/13 02:42:20;;;;;;;9.02;2.50;;;;;;;;;;4980646;28;20506;-73
2023/09/13 02:44:46;;;;;;;8.27;3.15;;;;;;;;;;4981793;28;20046;-82
2023/09/13 02:47:12;;;;;;;6.78;1.75;;;;;;;;;;4976912;28;20023;-80
2023/09/13 02:49:38;;;;;;;10.57;2.38;;;;;;;;;;4984291;28;20045;-82
2023/09/13 02:52:04;;;;;;;4.93;1.73;;;;;;;;;;4981049;28;20400;-74
2023/09/13 02:54:30;;;;;;;8.68;2.55;;;;;;;;;;4980326;28;20126;-75
2023/09/13 02:56:56;;;;;;;10.70;2.38;;;;;;;;;;4997438;28;20042;-76
2023/09/13 02:59:22;;;;;;;15.02;2.15;;;;;;;;;;4985675;28;20035;-76
2023/09/13 03:01:49;;;;;;;5.43;1.75;;;;;;;;;;4982151;28;20026;-76
2023/09/13 03:04:15;;;;;;;5.20;1.77;;;;;;;;;;4981471;28;20027;-76
2023/09/13 03:06:41;;;;;;;10.32;2.58;;;;;;;;;;4977825;28;20030;-76
2023/09/13 03:09:07;;;;;;;8.70;1.80;;;;;;;;;;4981024;28;20050;-75
2023/09/13 03:11:38;;;;;;;9.40;1.58;;;;;;;;;;4987773;28;20049;-76
2023/09/13 03:14:04;;;;;;;8.73;1.85;;;;;;;;;;4980102;28;20149;-76
2023/09/13 03:16:31;;;;;;;6.53;1.73;;;;;;;;;;4979487;28;20480;-76
2023/09/13 03:18:57;;;;;;;10.00;1.52;;;;;;;;;;4975719;28;20184;-76
2023/09/13 03:21:24;;;;;;;8.70;1.70;;;;;;;;;;4980305;28;20060;-75
2023/09/13 03:23:51;;;;;;;5.45;1.42;;;;;;;;;;4983091;28;20030;-76
2023/09/13 03:26:21;;;;;;;8.40;1.63;;;;;;;;;;4976210;28;20443;-76
2023/09/13 03:28:48;;;;;;;4.88;1.40;;;;;;;;;;4984197;28;20037;-76
2023/09/13 03:31:17;;;;;;;4.65;1.13;;;;;;;;;;4980207;28;20030;-76
2023/09/13 03:33:44;;;;;;;7.60;1.90;;;;;;;;;;4982215;28;20069;-76
2023/09/13 03:36:11;;;;;;;9.13;1.98;;;;;;;;;;4977167;28;20034;-77
2023/09/13 03:38:38;;;;;;;13.52;2.70;;;;;;;;;;4981287;28;20076;-77
2023/09/13 03:41:04;;;;;;;6.45;1.98;;;;;;;;;;5000617;28;20126;-76
2023/09/13 03:43:30;;;;;;;8.07;1.83;;;;;;;;;;4988911;28;20710;-77
2023/09/13 03:45:57;;;;;;;9.88;2.05;;;;;;;;;;4992405;28;20034;-77
2023/09/13 03:48:23;;;;;;;11.82;2.10;;;;;;;;;;4984545;28;20120;-76
2023/09/13 03:50:52;;;;;;;8.35;1.83;;;;;;;;;;4980489;28;20026;-76
2023/09/13 03:53:18;;;;;;;9.10;2.53;;;;;;;;;;4986790;28;20106;-76
2023/09/13 03:55:44;;;;;;;12.15;2.45;;;;;;;;;;4985722;28;20126;-78
2023/09/13 03:58:10;;;;;;;5.13;1.92;;;;;;;;;;4984386;28;20093;-77
2023/09/13 04:00:36;;;;;;;5.25;1.75;;;;;;;;;;4987514;28;20061;-76
2023/09/13 04:03:03;;;;;;;12.77;2.08;;;;;;;;;;4987458;28;20113;-75
2023/09/13 04:05:29;;;;;;;6.68;1.98;;;;;;;;;;4983761;28;20108;-74
2023/09/13 04:07:55;;;;;;;9.07;2.15;;;;;;;;;;4984507;28;20561;-75
2023/09/13 04:10:21;;;;;;;14.15;2.33;;;;;;;;;;4987540;28;20342;-75
2023/09/13 04:12:47;;;;;;;8.65;2.25;;;;;;;;;;4984417;28;20041;-75
2023/09/13 04:15:13;;;;;;;11.30;1.90;;;;;;;;;;4976294;28;20049;-75
2023/09/13 04:17:39;;;;;;;5.75;1.80;;;;;;;;;;4992886;28;20029;-75
2023/09/13 04:20:06;;;;;;;7.63;2.00;;;;;;;;;;4987939;28;20046;-74
2023/09/13 04:22:32;;;;;;;10.63;2.35;;;;;;;;;;4982726;28;20076;-72
2023/09/13 04:24:58;;;;;;;8.82;1.77;;;;;;;;;;4979826;28;20717;-74
2023/09/13 04:27:24;;;;;;;9.57;1.40;;;;;;;;;;4988371;28;20109;-73
2023/09/13 04:29:51;;;;;;;7.93;1.40;;;;;;;;;;4987307;28;20058;-73
2023/09/13 04:32:17;;;;;;;5.80;1.50;;;;;;;;;;4980696;28;20034;-73
2023/09/13 04:34:46;;;;;;;5.85;1.52;;;;;;;;;;4983977;28;20050;-73
2023/09/13 04:37:12;;;;;;;20.70;2.17;;;;;;;;;;4983004;28;20071;-73
2023/09/13 04:39:38;;;;;;;9.45;2.17;;;;;;;;;;4987614;28;20586;-74
2023/09/13 04:42:04;;;;;;;6.63;1.60;;;;;;;;;;4991388;28;20218;-74
2023/09/13 04:44:30;;;;;;;8.85;2.22;;;;;;;;;;4979313;28;20113;-74
2023/09/13 04:46:57;;;;;;;6.38;2.03;;;;;;;;;;4987471;28;20110;-74
2023/09/13 04:49:23;;;;;;;8.07;1.98;;;;;;;;;;4986652;28;20464;-74
2023/09/13 04:51:49;;;;;;;13.07;2.65;;;;;;;;;;4983162;28;20061;-74
2023/09/13 04:54:15;;;;;;;13.73;3.13;;;;;;;;;;4989955;28;20109;-74
2023/09/13 04:56:41;;;;;;;7.55;1.92;;;;;;;;;;4980507;28;20039;-74
2023/09/13 04:59:07;;;;;;;6.55;1.73;;;;;;;;;;4985668;28;20053;-74
2023/09/13 05:01:33;;;;;;;16.40;2.97;;;;;;;;;;4984603;28;20042;-74
2023/09/13 05:03:59;;;;;;;13.85;2.05;;;;;;;;;;4981629;28;20038;-73
2023/09/13 05:06:25;;;;;;;14.32;2.60;;;;;;;;;;4988968;28;20037;-73
2023/09/13 05:08:52;;;;;;;6.97;3.00;;;;;;;;;;4988790;28;20031;-74
2023/09/13 05:11:19;;;;;;;8.38;1.95;;;;;;;;;;4982086;28;20038;-74
2023/09/13 05:13:48;;;;;;;7.00;1.73;;;;;;;;;;4985035;28;20385;-75
2023/09/13 05:16:20;;;;;;;9.93;2.00;;;;;;;;;;4980926;28;20043;-74
2023/09/13 05:18:47;;;;;;;13.43;2.92;;;;;;;;;;4982979;28;20503;-74
2023/09/13 05:21:13;;;;;;;8.30;2.40;;;;;;;;;;4992988;28;20038;-74
2023/09/13 05:23:39;;;;;;;10.57;2.70;;;;;;;;;;4989041;28;20038;-73
2023/09/13 05:26:05;;;;;;;10.68;3.08;;;;;;;;;;4988737;28;20030;-73
2023/09/13 05:28:33;;;;;;;11.98;2.40;;;;;;;;;;4985389;28;20054;-74
2023/09/13 05:30:59;;;;;;;8.20;2.08;;;;;;;;;;4983067;28;20081;-74
2023/09/13 05:33:25;;;;;;;11.27;2.30;;;;;;;;;;4978302;28;20062;-74
2023/09/13 05:35:51;;;;;;;12.55;2.53;;;;;;;;;;4988134;28;20065;-74
2023/09/13 05:38:18;;;;;;;11.10;2.30;;;;;;;;;;4987866;28;20118;-75
2023/09/13 05:40:44;;;;;;;13.80;2.83;;;;;;;;;;4986539;28;20046;-75
2023/09/13 05:43:10;;;;;;;14.07;2.33;;;;;;;;;;4995100;28;20388;-74
2023/09/13 05:45:36;;;;;;;14.07;2.97;;;;;;;;;;4983270;28;20035;-73
2023/09/13 05:48:02;;;;;;;10.32;2.38;;;;;;;;;;4985916;28;20031;-74
2023/09/13 05:50:28;;;;;;;11.57;3.50;;;;;;;;;;4982941;28;20026;-74
2023/09/13 05:52:55;;;;;;;10.93;2.92;;;;;;;;;;4980485;28;20057;-74
2023/09/13 05:55:21;;;;;;;13.85;3.15;;;;;;;;;;4981292;28;20045;-73
2023/09/13 05:57:49;;;;;;;9.25;3.10;;;;;;;;;;4988186;28;20122;-74
2023/09/13 06:00:15;;;;;;;15.40;3.88;;;;;;;;;;4982242;28;20133;-75
2023/09/13 06:02:41;;;;;;;13.18;3.05;;;;;;;;;;4976957;28;20107;-74
2023/09/13 06:05:10;;;;;;;9.55;2.92;;;;;;;;;;4980442;28;20047;-73
2023/09/13 06:07:37;;;;;;;8.57;3.08;;;;;;;;;;4976018;28;20536;-72
2023/09/13 06:10:04;;;;;;;13.05;3.15;;;;;;;;;;4978856;28;20141;-73
2023/09/13 06:12:33;;;;;;;17.52;3.35;;;;;;;;;;4986563;28;20063;-72
2023/09/13 06:14:59;;;;;;;9.85;4.63;;;;;;;;;;4973413;28;20540;-73
2023/09/13 06:17:25;;;;;;;10.88;3.67;;;;;;;;;;4985489;28;20117;-73
2023/09/13 06:19:52;;;;;;;9.32;3.03;;;;;;;;;;5000969;28;20066;-73
2023/09/13 06:22:18;;;;;;;12.38;4.38;;;;;;;;;;4984555;28;20037;-72
2023/09/13 06:24:44;;;;;;;11.45;3.03;;;;;;;;;;4984716;28;20045;-72
2023/09/13 06:27:10;;;;;;;16.60;3.50;;;;;;;;;;4980751;28;20266;-71
2023/09/13 06:29:36;;;;;;;14.27;3.78;;;;;;;;;;4978058;28;20182;-72
2023/09/13 06:32:03;;;;;;;15.75;3.22;;;;;;;;;;4980391;28;20053;-72
2023/09/13 06:34:29;;;;;;;17.50;3.05;;;;;;;;;;4984819;28;20035;-72
2023/09/13 06:36:55;;;;;;;15.07;3.58;;;;;;;;;;4982045;28;20173;-73
2023/09/13 06:39:21;;;;;;;10.35;3.30;;;;;;;;;;4984706;28;20200;-72
2023/09/13 06:41:48;;;;;;;14.70;3.05;;;;;;;;;;4982285;28;20233;-73
2023/09/13 06:44:14;;;;;;;15.57;3.30;;;;;;;;;;4981120;28;20066;-72
2023/09/13 06:46:41;;;;;;;16.25;2.80;;;;;;;;;;4984474;28;20047;-71
2023/09/13 06:49:07;;;;;;;14.45;3.92;;;;;;;;;;4982616;28;20432;-72
2023/09/13 06:51:33;;;;;;;12.93;3.50;;;;;;;;;;4984511;28;20036;-72
2023/09/13 06:54:00;;;;;;;12.32;2.80;;;;;;;;;;4983501;28;20113;-73
2023/09/13 06:56:26;;;;;;;15.05;4.35;;;;;;;;;;4982698;28;20030;-73
2023/09/13 06:58:53;;;;;;;19.42;7.32;;;;;;;;;;4977984;28;20065;-75
2023/09/13 07:01:19;;;;;;;10.77;3.28;;;;;;;;;;4981244;28;20041;-75
2023/09/13 07:03:45;;;;;;;12.65;3.38;;;;;;;;;;4977838;28;20062;-74
2023/09/13 07:06:11;;;;;;;12.93;2.72;;;;;;;;;;4981814;28;20041;-76
2023/09/13 07:08:37;;;;;;;11.00;3.22;;;;;;;;;;4984395;28;20113;-74
2023/09/13 07:11:03;;;;;;;12.05;3.17;;;;;;;;;;4977648;28;20059;-74
2023/09/13 07:13:29;;;;;;;10.80;2.97;;;;;;;;;;4983890;28;20516;-75
2023/09/13 07:15:55;;;;;;;12.82;2.28;;;;;;;;;;4982506;28;20662;-74
2023/09/13 07:18:23;;;;;;;13.73;2.15;;;;;;;;;;4983164;28;20189;-73
2023/09/13 07:20:49;;;;;;;15.38;3.00;;;;;;;;;;4975170;28;20035;-74
2023/09/13 07:23:15;;;;;;;9.45;2.10;;;;;;;;;;4979668;28;20049;-76
2023/09/13 07:25:41;;;;;;;11.32;3.30;;;;;;;;;;4979184;28;20496;-74
2023/09/13 07:28:07;;;;;;;8.90;2.45;;;;;;;;;;4973651;28;20551;-75
2023/09/13 07:30:33;;;;;;;10.63;2.03;;;;;;;;;;4978639;28;20043;-75
2023/09/13 07:33:00;;;;;;;12.13;2.47;;;;;;;;;;4975175;28;20061;-75
2023/09/13 07:35:26;;;;;;;151.13;96.93;;;;;;;;;;4982157;28;20045;-76
2023/09/13 07:37:52;;;;;;;13.20;4.25;;;;;;;;;;4984240;28;20104;-76
2023/09/13 07:40:18;;;;;;;10.35;2.90;;;;;;;;;;4984799;28;20109;-76
2023/09/13 07:42:44;;;;;;;9.63;1.67;;;;;;;;;;4979621;28;21912;-76
2023/09/13 07:45:10;;;;;;;8.27;3.03;;;;;;;;;;4982987;28;20698;-77
2023/09/13 07:47:36;;;;;;;8.05;2.20;;;;;;;;;;4984911;28;20468;-75
2023/09/13 07:50:02;;;;;;;9.93;2.88;;;;;;;;;;4983636;28;20038;-77
2023/09/13 07:52:28;;;;;;;6.72;1.83;;;;;;;;;;4982282;28;20034;-77
2023/09/13 07:54:54;;;;;;;9.73;2.67;;;;;;;;;;4987175;28;20069;-77
2023/09/13 07:57:21;;;;;;;10.00;1.85;;;;;;;;;;4985195;28;20472;-75
2023/09/13 07:59:47;;;;;;;10.85;3.95;;;;;;;;;;4985514;28;20042;-74
2023/09/13 08:02:13;;;;;;;15.05;2.55;;;;;;;;;;4986935;28;20045;-74
2023/09/13 08:04:40;;;;;;;10.07;1.60;;;;;;;;;;4984671;28;20451;-74
2023/09/13 08:07:06;;;;;;;6.72;1.80;;;;;;;;;;4985556;28;20076;-75
2023/09/13 08:09:33;;;;;;;5.43;1.60;;;;;;;;;;4979384;28;20454;-73
2023/09/13 08:11:59;;;;;;;11.73;3.15;;;;;;;;;;4978934;28;20131;-74
2023/09/13 08:14:25;;;;;;;10.80;3.17;;;;;;;;;;4985081;28;20063;-74
2023/09/13 08:16:51;;;;;;;12.68;2.85;;;;;;;;;;4975695;28;20396;-75
2023/09/13 08:19:17;;;;;;;7.75;1.60;;;;;;;;;;4984467;28;20038;-75
2023/09/13 08:21:43;;;;;;;12.32;2.25;;;;;;;;;;4986004;28;20046;-73
2023/09/13 08:24:09;;;;;;;8.68;2.15;;;;;;;;;;4987257;28;20038;-77
2023/09/13 08:26:35;;;;;;;10.32;1.80;;;;;;;;;;4984733;28;20181;-73
2023/09/13 08:29:03;;;;;;;11.55;1.52;;;;;;;;;;4976174;28;20496;-74
2023/09/13 08:31:29;;;;;;;10.00;2.42;;;;;;;;;;4982348;28;20125;-74
2023/09/13 08:33:55;;;;;;;9.15;2.70;;;;;;;;;;4979589;28;20050;-74
2023/09/13 08:36:21;;;;;;;9.73;1.55;;;;;;;;;;4979333;28;20034;-74
2023/09/13 08:38:47;;;;;;;9.43;2.00;;;;;;;;;;4980582;28;20030;-74
2023/09/13 08:41:17;;;;;;;11.00;1.95;;;;;;;;;;4979926;28;20053;-74
2023/09/13 08:43:43;;;;;;;7.75;1.38;;;;;;;;;;4981605;28;20054;-74
2023/09/13 08:46:10;;;;;;;8.70;1.73;;;;;;;;;;4998495;28;20133;-74
2023/09/13 08:48:38;;;;;;;15.25;2.53;;;;;;;;;;4982937;28;20117;-74
2023/09/13 08:51:04;;;;;;;8.48;1.77;;;;;;;;;;4992216;28;20591;-73
2023/09/13 08:53:32;;;;;;;8.02;1.90;;;;;;;;;;4987556;28;20073;-74
2023/09/13 08:55:59;;;;;;;8.98;2.55;;;;;;;;;;4988785;28;20066;-73
2023/09/13 08:58:25;;;;;;;10.20;2.53;;;;;;;;;;4977275;28;20042;-73
2023/09/13 09:00:52;;;;;;;11.13;2.42;;;;;;;;;;4979571;28;20081;-73
2023/09/13 09:03:21;;;;;;;14.80;5.22;;;;;;;;;;4987547;28;20113;-72
2023/09/13 09:05:47;;;;;;;27.83;15.35;;;;;;;;;;4988251;28;20034;-71
2023/09/13 09:08:13;;;;;;;9.02;3.00;;;;;;;;;;4985216;28;20031;-72
2023/09/13 09:10:42;;;;;;;15.00;2.78;;;;;;;;;;4982916;28;20035;-73
2023/09/13 09:13:10;;;;;;;11.38;2.83;;;;;;;;;;4980746;28;20478;-71
2023/09/13 09:15:38;;;;;;;17.10;3.00;;;;;;;;;;4979432;28;20026;-71
2023/09/13 09:18:06;;;;;;;11.55;2.80;;;;;;;;;;4987376;28;20035;-72
2023/09/13 09:20:32;;;;;;;9.10;2.67;;;;;;;;;;4983646;28;20120;-72
2023/09/13 09:22:59;;;;;;;12.10;3.40;;;;;;;;;;4986599;28;20070;-72
2023/09/13 09:25:25;;;;;;;9.75;3.13;;;;;;;;;;4979479;28;20026;-72
2023/09/13 09:27:52;;;;;;;8.38;2.72;;;;;;;;;;4981061;28;20050;-77
2023/09/13 09:30:28;;;;;;;10.48;4.65;;;;;;;;;;4985684;28;20026;-73
2023/09/13 09:33:00;;;;;;;10.02;2.60;;;;;;;;;;4982009;28;20096;-75
2023/09/13 09:35:26;;;;;;;10.90;3.47;;;;;;;;;;4993853;28;20565;-73
2023/09/13 09:37:52;;;;;;;7.70;2.55;;;;;;;;;;4990563;28;20709;-78
2023/09/13 09:40:18;;;;;;;11.65;2.72;;;;;;;;;;4982927;28;20121;-76
2023/09/13 09:42:44;;;;;;;12.45;2.75;;;;;;;;;;4983862;28;20124;-76
2023/09/13 09:45:10;;;;;;;7.35;2.15;;;;;;;;;;4987422;28;20082;-77
2023/09/13 09:47:41;;;;;;;7.45;2.03;;;;;;;;;;4983282;28;20034;-75
2023/09/13 09:50:10;;;;;;;8.38;1.90;;;;;;;;;;4987992;28;20026;-76
2023/09/13 09:52:36;;;;;;;4.68;2.65;;;;;;;;;;4979609;28;20555;-75
2023/09/13 09:55:04;;;;;;;4.85;2.45;;;;;;;;;;4987100;28;20038;-75
2023/09/13 09:57:31;;;;;;;6.22;2.08;;;;;;;;;;4984797;28;20100;-75
2023/09/13 09:59:59;;;;;;;5.68;2.00;;;;;;;;;;4983926;28;20034;-76
2023/09/13 10:02:26;;;;;;;4.82;2.08;;;;;;;;;;4977494;28;20156;-75
2023/09/13 10:04:52;;;;;;;4.95;2.15;;;;;;;;;;4982995;28;20047;-74
2023/09/13 10:07:18;;;;;;;7.22;2.58;;;;;;;;;;4976674;28;20035;-75
2023/09/13 10:09:45;;;;;;;6.53;2.03;;;;;;;;;;4983733;28;20039;-75
2023/09/13 10:12:12;;;;;;;6.20;2.30;;;;;;;;;;4986248;28;20101;-75
2023/09/13 10:14:39;;;;;;;7.30;2.03;;;;;;;;;;4995293;28;20030;-74
2023/09/13 10:17:06;;;;;;;5.22;1.90;;;;;;;;;;4979268;28;20389;-75
2023/09/13 10:19:33;;;;;;;7.03;3.08;;;;;;;;;;4979664;28;20031;-76
2023/09/13 10:21:59;;;;;;;11.20;5.10;;;;;;;;;;4972095;28;20038;-78
2023/09/13 10:24:29;;;;;;;5.68;2.58;;;;;;;;;;4985594;28;20070;-82
2023/09/13 10:26:56;;;;;;;6.05;2.28;;;;;;;;;;4978086;28;20054;-83
2023/09/13 10:29:31;;;;;;;6.22;2.60;;;;;;;;;;4992085;28;20052;-82
2023/09/13 10:31:58;;;;;;;7.68;2.80;;;;;;;;;;4975555;28;20065;-83
2023/09/13 10:34:27;;;;;;;5.53;2.45;;;;;;;;;;4981474;28;20045;-83
2023/09/13 10:36:56;;;;;;;5.72;2.90;;;;;;;;;;4977260;28;20105;-75
2023/09/13 10:39:25;;;;;;;7.32;2.65;;;;;;;;;;4991448;28;20058;-75
2023/09/13 10:42:07;;;;;;;4.55;2.17;;;;;;;;;;4976831;28;20080;-75
2023/09/13 10:44:34;;;;;;;5.82;2.40;;;;;;;;;;4978633;28;20537;-73
2023/09/13 10:47:00;;;;;;;7.72;2.70;;;;;;;;;;4987605;28;20015;-72
2023/09/13 10:49:27;;;;;;;5.90;2.30;;;;;;;;;;4995988;28;20209;-73
2023/09/13 10:51:58;;;;;;;5.70;2.33;;;;;;;;;;4972042;28;20035;-73
2023/09/13 10:54:25;;;;;;;4.50;2.38;;;;;;;;;;4988177;28;20369;-75
2023/09/13 10:56:51;;;;;;;7.40;2.60;;;;;;;;;;4982594;28;20042;-75
2023/09/13 10:59:18;;;;;;;7.20;2.22;;;;;;;;;;4982599;28;20105;-75
2023/09/13 11:01:48;;;;;;;8.60;2.47;;;;;;;;;;4972114;28;20038;-77
2023/09/13 11:04:18;;;;;;;4.03;2.00;;;;;;;;;;4982329;28;20084;-75
2023/09/13 11:06:44;;;;;;;5.35;2.30;;;;;;;;;;4983329;28;20038;-75
2023/09/13 11:09:14;;;;;;;5.57;2.45;;;;;;;;;;4985087;28;20113;-77
2023/09/13 11:11:45;;;;;;;4.60;2.50;;;;;;;;;;4968304;28;20046;-76
2023/09/13 11:14:17;;;;;;;7.97;2.67;;;;;;;;;;4980683;28;20038;-79
2023/09/13 11:16:43;;;;;;;6.82;3.03;;;;;;;;;;4982336;28;20121;-77
2023/09/13 11:19:10;;;;;;;5.60;2.90;;;;;;;;;;4986189;28;20049;-78
2023/09/13 11:21:46;;;;;;;5.70;2.35;;;;;;;;;;4994250;28;20034;-76
2023/09/13 11:24:12;;;;;;;8.30;2.20;;;;;;;;;;4978149;28;20493;-76
2023/09/13 11:26:43;;;;;;;5.38;2.22;;;;;;;;;;4979478;28;20216;-74
2023/09/13 11:29:23;;;;;;;4.35;1.98;;;;;;;;;;4973609;28;20054;-74
2023/09/13 11:31:56;;;;;;;3.97;2.05;;;;;;;;;;4975345;28;20130;-73
2023/09/13 11:34:22;;;;;;;6.85;2.33;;;;;;;;;;4981385;28;20042;-73
2023/09/13 11:36:59;;;;;;;4.55;2.10;;;;;;;;;;4979624;28;20073;-72
2023/09/13 11:39:26;;;;;;;7.93;2.10;;;;;;;;;;4974527;28;20032;-75
2023/09/13 11:41:53;;;;;;;5.40;3.42;;;;;;;;;;4975348;28;20038;-75
2023/09/13 11:44:21;;;;;;;7.43;3.88;;;;;;;;;;4998979;28;20034;-74
2023/09/13 11:46:49;;;;;;;10.20;3.08;;;;;;;;;;4992355;28;20041;-74
2023/09/13 11:49:20;;;;;;;6.57;2.55;;;;;;;;;;4986602;28;20034;-75
2023/09/13 11:51:51;;;;;;;5.57;2.50;;;;;;;;;;4985604;28;20105;-73
2023/09/13 11:54:18;;;;;;;6.93;2.50;;;;;;;;;;4979271;28;20065;-73
2023/09/13 11:56:45;;;;;;;4.32;2.20;;;;;;;;;;4976421;28;20305;-74
2023/09/13 11:59:11;;;;;;;6.75;2.40;;;;;;;;;;4976481;28;20057;-75
2023/09/13 12:01:42;;;;;;;8.27;2.75;;;;;;;;;;4976314;28;20093;-74
2023/09/13 12:04:09;;;;;;;10.10;5.13;;;;;;;;;;4981505;28;20031;-74
2023/09/13 12:06:45;;;;;;;10.55;4.53;;;;;;;;;;4982818;28;20065;-73
2023/09/13 12:09:16;;;;;;;6.60;2.05;;;;;;;;;;4978406;28;20042;-76
2023/09/13 12:11:42;;;;;;;6.97;1.70;;;;;;;;;;4981772;28;20487;-75
2023/09/13 12:14:09;;;;;;;5.32;2.15;;;;;;;;;;4980946;28;20085;-76
2023/09/13 12:16:38;;;;;;;6.55;1.92;;;;;;;;;;4977421;28;20046;-75
2023/09/13 12:19:05;;;;;;;7.00;2.00;;;;;;;;;;4981624;28;20568;-76
2023/09/13 12:21:31;;;;;;;5.78;1.83;;;;;;;;;;4976790;28;20027;-75
2023/09/13 12:23:58;;;;;;;6.80;1.95;;;;;;;;;;4983044;28;20111;-75
2023/09/13 12:26:24;;;;;;;5.68;1.63;;;;;;;;;;4976123;28;20031;-75
2023/09/13 12:28:50;;;;;;;5.40;1.42;;;;;;;;;;4984946;28;20046;-75
2023/09/13 12:31:17;;;;;;;13.07;1.63;;;;;;;;;;4988737;28;20400;-75
2023/09/13 12:33:44;;;;;;;6.80;1.58;;;;;;;;;;4982714;28;20031;-75
2023/09/13 12:36:10;;;;;;;7.63;1.95;;;;;;;;;;4984471;28;20041;-75
2023/09/13 12:38:42;;;;;;;3.10;1.00;;;;;;;;;;4981785;28;20045;-75
2023/09/13 12:41:09;;;;;;;5.07;1.60;;;;;;;;;;4981816;28;20130;-75
2023/09/13 12:43:36;;;;;;;6.25;1.10;;;;;;;;;;4984016;28;20034;-79
2023/09/13 12:46:02;;;;;;;11.52;4.90;;;;;;;;;;4983058;28;20079;-85
2023/09/13 12:48:29;;;;;;;8.98;3.72;;;;;;;;;;4996033;28;20034;-85
2023/09/13 12:50:55;;;;;;;5.90;1.60;;;;;;;;;;4990190;28;20058;-86
2023/09/13 12:53:21;;;;;;;5.18;1.30;;;;;;;;;;4987306;28;20034;-83
2023/09/13 12:55:48;;;;;;;8.55;1.52;;;;;;;;;;4991289;28;20040;-83
2023/09/13 12:58:14;;;;;;;16.15;2.33;;;;;;;;;;4987565;28;20042;-86
2023/09/13 13:00:57;;;;;;;7.50;1.50;;;;;;;;;;4982274;28;20030;-92
2023/09/13 13:03:25;;;;;;;4.18;1.10;;;;;;;;;;4978160;28;21781;-84
2023/09/13 13:05:52;;;;;;;7.72;1.45;;;;;;;;;;4998335;28;20034;-83
2023/09/13 13:08:18;;;;;;;7.25;1.38;;;;;;;;;;4991232;28;20037;-83
2023/09/13 13:11:00;;;;;;;5.15;1.35;;;;;;;;;;4985066;28;20038;-86
2023/09/13 13:13:31;;;;;;;5.75;1.02;;;;;;;;;;4979256;28;20167;-86
2023/09/13 13:15:57;;;;;;;5.32;1.05;;;;;;;;;;4984809;28;20045;-88
2023/09/13 13:18:23;;;;;;;9.70;2.03;;;;;;;;;;4986285;28;20103;-88
2023/09/13 13:20:50;;;;;;;8.18;1.60;;;;;;;;;;4984511;28;20045;-84
2023/09/13 13:23:16;;;;;;;6.70;1.70;;;;;;;;;;4991068;28;20042;-84
2023/09/13 13:25:42;;;;;;;10.52;2.13;;;;;;;;;;4983149;28;20031;-85
2023/09/13 13:28:11;;;;;;;6.50;1.70;;;;;;;;;;4984450;28;20042;-85
2023/09/13 13:30:38;;;;;;;6.82;1.80;;;;;;;;;;4977854;28;20111;-85
2023/09/13 13:33:05;;;;;;;6.50;1.98;;;;;;;;;;4978665;28;20056;-85
2023/09/13 13:35:31;;;;;;;9.15;1.65;;;;;;;;;;4984736;28;20448;-84
2023/09/13 13:37:57;;;;;;;7.43;1.55;;;;;;;;;;4987832;28;20042;-89
2023/09/13 13:40:24;;;;;;;6.28;1.80;;;;;;;;;;4981979;28;20057;-83
2023/09/13 13:42:50;;;;;;;13.27;2.78;;;;;;;;;;4985490;28;20050;-74
2023/09/13 13:45:16;;;;;;;8.63;3.38;;;;;;;;;;4986070;28;20066;-74
2023/09/13 13:47:42;;;;;;;6.25;1.45;;;;;;;;;;4986087;28;20062;-74
2023/09/13 13:50:08;;;;;;;8.05;1.63;;;;;;;;;;4988860;28;20030;-75
2023/09/13 13:52:34;;;;;;;11.95;2.20;;;;;;;;;;4981347;28;20038;-74
2023/09/13 13:55:00;;;;;;;9.02;1.65;;;;;;;;;;4978203;28;20514;-75
2023/09/13 13:57:26;;;;;;;8.07;1.90;;;;;;;;;;4988896;28;20042;-75
2023/09/13 13:59:52;;;;;;;7.90;1.95;;;;;;;;;;4987891;28;20041;-75
2023/09/13 14:02:18;;;;;;;4.43;1.05;;;;;;;;;;4988681;28;20030;-75
2023/09/13 14:04:47;;;;;;;4.07;1.40;;;;;;;;;;4988929;28;20034;-74
2023/09/13 14:07:13;;;;;;;4.43;1.27;;;;;;;;;;4988838;28;20137;-74
2023/09/13 14:09:39;;;;;;;6.97;1.73;;;;;;;;;;4979272;28;20035;-74
2023/09/13 14:12:05;;;;;;;6.93;1.60;;;;;;;;;;4986386;28;20150;-75
2023/09/13 14:14:31;;;;;;;5.95;1.30;;;;;;;;;;4985135;28;20572;-76
2023/09/13 14:16:57;;;;;;;10.05;2.88;;;;;;;;;;4985302;28;20038;-75
2023/09/13 14:19:23;;;;;;;7.63;1.67;;;;;;;;;;4979968;28;20476;-74
2023/09/13 14:21:49;;;;;;;10.68;1.77;;;;;;;;;;4988259;28;20049;-74
2023/09/13 14:24:15;;;;;;;7.50;1.73;;;;;;;;;;4982563;28;20065;-74
2023/09/13 14:26:41;;;;;;;7.85;1.70;;;;;;;;;;4985171;28;20105;-75
2023/09/13 14:29:07;;;;;;;6.70;1.80;;;;;;;;;;4987749;28;20520;-75
2023/09/13 14:31:36;;;;;;;7.20;1.90;;;;;;;;;;4987902;28;20037;-74
2023/09/13 14:34:05;;;;;;;7.43;1.77;;;;;;;;;;4989367;28;20038;-74
2023/09/13 14:36:31;;;;;;;10.77;2.13;;;;;;;;;;4985161;28;20081;-74